sensor_id;sensor_type;location;lat;lon;timestamp;P1;durP1;ratioP1;P2;durP2;ratioP2
70967;SDS011;58629;48.808;8.820;2023-04-03T00:00:05;1.90;;;1.40;;
70967;SDS011;58629;48.808;8.820;2023-04-03T00:02:31;2.40;;;1.40;;
70967;SDS011;58629;48.808;8.820;2023-04-03T00:04:57;3.50;;;2.00;;
70967;SDS011;58629;48.808;8.820;2023-04-03T00:07:23;2.50;;;1.67;;
70967;SDS011;58629;48.808;8.820;2023-04-03T00:09:48;2.30;;;1.40;;
70967;SDS011;58629;48.808;8.820;2023-04-03T00:12:13;2.30;;;1.47;;
70967;SDS011;58629;48.808;8.820;2023-04-03T00:14:38;2.80;;;1.60;;
70967;SDS011;58629;48.808;8.820;2023-04-03T00:17:04;1.98;;;1.40;;
70967;SDS011;58629;48.808;8.820;2023-04-03T00:19:29;2.03;;;1.35;;
70967;SDS011;58629;48.808;8.820;2023-04-03T00:21:55;2.63;;;1.30;;
70967;SDS011;58629;48.808;8.820;2023-04-03T00:24:20;1.90;;;1.20;;
70967;SDS011;58629;48.808;8.820;2023-04-03T00:26:45;2.60;;;1.23;;
70967;SDS011;58629;48.808;8.820;2023-04-03T00:29:11;2.63;;;1.30;;
70967;SDS011;58629;48.808;8.820;2023-04-03T00:31:36;1.87;;;1.10;;
70967;SDS011;58629;48.808;8.820;2023-04-03T00:34:01;1.50;;;1.13;;
70967;SDS011;58629;48.808;8.820;2023-04-03T00:36:27;2.10;;;1.33;;
70967;SDS011;58629;48.808;8.820;2023-04-03T00:38:52;2.97;;;1.40;;
70967;SDS011;58629;48.808;8.820;2023-04-03T00:41:17;3.27;;;1.47;;
70967;SDS011;58629;48.808;8.820;2023-04-03T00:43:42;1.93;;;1.30;;
70967;SDS011;58629;48.808;8.820;2023-04-03T00:46:08;2.30;;;1.53;;
70967;SDS011;58629;48.808;8.820;2023-04-03T00:48:45;2.27;;;1.30;;
70967;SDS011;58629;48.808;8.820;2023-04-03T00:51:24;2.50;;;1.63;;
70967;SDS011;58629;48.808;8.820;2023-04-03T00:53:55;2.47;;;1.30;;
70967;SDS011;58629;48.808;8.820;2023-04-03T00:56:24;2.50;;;1.60;;
70967;SDS011;58629;48.808;8.820;2023-04-03T00:58:53;3.53;;;1.58;;
70967;SDS011;58629;48.808;8.820;2023-04-03T01:01:21;2.35;;;1.40;;
70967;SDS011;58629;48.808;8.820;2023-04-03T01:03:49;3.17;;;1.95;;
70967;SDS011;58629;48.808;8.820;2023-04-03T01:06:15;3.23;;;1.73;;
70967;SDS011;58629;48.808;8.820;2023-04-03T01:08:41;2.35;;;1.45;;
70967;SDS011;58629;48.808;8.820;2023-04-03T01:11:07;3.38;;;1.65;;
70967;SDS011;58629;48.808;8.820;2023-04-03T01:13:33;2.73;;;1.40;;
70967;SDS011;58629;48.808;8.820;2023-04-03T01:16:02;2.77;;;1.57;;
70967;SDS011;58629;48.808;8.820;2023-04-03T01:18:29;3.10;;;1.92;;
70967;SDS011;58629;48.808;8.820;2023-04-03T01:23:42;2.95;;;1.73;;
70967;SDS011;58629;48.808;8.820;2023-04-03T01:26:29;4.95;;;1.90;;
70967;SDS011;58629;48.808;8.820;2023-04-03T01:28:55;2.70;;;1.57;;
70967;SDS011;58629;48.808;8.820;2023-04-03T01:31:28;3.08;;;1.77;;
70967;SDS011;58629;48.808;8.820;2023-04-03T01:33:56;3.38;;;1.70;;
70967;SDS011;58629;48.808;8.820;2023-04-03T01:36:25;4.03;;;1.93;;
70967;SDS011;58629;48.808;8.820;2023-04-03T01:38:53;2.40;;;1.42;;
70967;SDS011;58629;48.808;8.820;2023-04-03T01:41:19;2.70;;;1.60;;
70967;SDS011;58629;48.808;8.820;2023-04-03T01:43:46;2.90;;;1.60;;
70967;SDS011;58629;48.808;8.820;2023-04-03T01:46:12;2.83;;;1.67;;
70967;SDS011;58629;48.808;8.820;2023-04-03T01:48:37;3.60;;;2.20;;
70967;SDS011;58629;48.808;8.820;2023-04-03T01:51:02;3.03;;;1.60;;
70967;SDS011;58629;48.808;8.820;2023-04-03T01:53:28;2.67;;;1.60;;
70967;SDS011;58629;48.808;8.820;2023-04-03T01:55:53;2.53;;;1.60;;
70967;SDS011;58629;48.808;8.820;2023-04-03T01:58:18;3.30;;;1.60;;
70967;SDS011;58629;48.808;8.820;2023-04-03T02:00:43;2.57;;;1.60;;
70967;SDS011;58629;48.808;8.820;2023-04-03T02:03:09;3.27;;;1.70;;
70967;SDS011;58629;48.808;8.820;2023-04-03T02:05:34;2.93;;;1.50;;
70967;SDS011;58629;48.808;8.820;2023-04-03T02:07:59;2.30;;;1.40;;
70967;SDS011;58629;48.808;8.820;2023-04-03T02:10:25;2.45;;;1.70;;
70967;SDS011;58629;48.808;8.820;2023-04-03T02:12:50;4.13;;;2.20;;
70967;SDS011;58629;48.808;8.820;2023-04-03T02:15:16;3.80;;;2.20;;
70967;SDS011;58629;48.808;8.820;2023-04-03T02:17:42;3.40;;;1.95;;
70967;SDS011;58629;48.808;8.820;2023-04-03T02:20:07;3.23;;;1.90;;
70967;SDS011;58629;48.808;8.820;2023-04-03T02:22:33;2.77;;;1.83;;
70967;SDS011;58629;48.808;8.820;2023-04-03T02:24:58;3.50;;;1.92;;
70967;SDS011;58629;48.808;8.820;2023-04-03T02:27:24;3.53;;;1.77;;
70967;SDS011;58629;48.808;8.820;2023-04-03T02:29:49;3.43;;;1.57;;
70967;SDS011;58629;48.808;8.820;2023-04-03T02:32:14;2.50;;;1.60;;
70967;SDS011;58629;48.808;8.820;2023-04-03T02:34:40;2.40;;;1.40;;
70967;SDS011;58629;48.808;8.820;2023-04-03T02:37:05;2.40;;;1.60;;
70967;SDS011;58629;48.808;8.820;2023-04-03T02:39:31;2.78;;;1.70;;
70967;SDS011;58629;48.808;8.820;2023-04-03T02:41:56;2.00;;;1.20;;
70967;SDS011;58629;48.808;8.820;2023-04-03T02:44:21;3.43;;;1.77;;
70967;SDS011;58629;48.808;8.820;2023-04-03T02:46:48;3.33;;;1.63;;
70967;SDS011;58629;48.808;8.820;2023-04-03T02:49:13;2.57;;;1.60;;
70967;SDS011;58629;48.808;8.820;2023-04-03T02:51:39;3.20;;;1.93;;
70967;SDS011;58629;48.808;8.820;2023-04-03T02:54:04;3.17;;;1.83;;
70967;SDS011;58629;48.808;8.820;2023-04-03T02:56:29;3.33;;;1.87;;
70967;SDS011;58629;48.808;8.820;2023-04-03T02:58:55;2.45;;;1.70;;
70967;SDS011;58629;48.808;8.820;2023-04-03T03:01:20;3.28;;;1.65;;
70967;SDS011;58629;48.808;8.820;2023-04-03T03:03:46;4.95;;;1.80;;
70967;SDS011;58629;48.808;8.820;2023-04-03T03:06:12;3.63;;;1.70;;
70967;SDS011;58629;48.808;8.820;2023-04-03T03:08:39;2.43;;;1.63;;
70967;SDS011;58629;48.808;8.820;2023-04-03T03:11:05;2.45;;;1.60;;
70967;SDS011;58629;48.808;8.820;2023-04-03T03:13:31;3.00;;;1.95;;
70967;SDS011;58629;48.808;8.820;2023-04-03T03:15:56;2.97;;;1.67;;
70967;SDS011;58629;48.808;8.820;2023-04-03T03:18:22;4.57;;;2.20;;
70967;SDS011;58629;48.808;8.820;2023-04-03T03:20:50;2.43;;;1.60;;
70967;SDS011;58629;48.808;8.820;2023-04-03T03:23:21;2.60;;;1.60;;
70967;SDS011;58629;48.808;8.820;2023-04-03T03:25:48;2.50;;;1.60;;
70967;SDS011;58629;48.808;8.820;2023-04-03T03:28:13;2.20;;;1.70;;
70967;SDS011;58629;48.808;8.820;2023-04-03T03:30:39;2.20;;;1.27;;
70967;SDS011;58629;48.808;8.820;2023-04-03T03:33:05;2.97;;;1.58;;
70967;SDS011;58629;48.808;8.820;2023-04-03T03:35:30;2.20;;;1.50;;
70967;SDS011;58629;48.808;8.820;2023-04-03T03:37:56;2.53;;;1.43;;
70967;SDS011;58629;48.808;8.820;2023-04-03T03:40:21;2.40;;;1.80;;
70967;SDS011;58629;48.808;8.820;2023-04-03T03:42:47;2.58;;;1.65;;
70967;SDS011;58629;48.808;8.820;2023-04-03T03:45:12;2.60;;;1.77;;
70967;SDS011;58629;48.808;8.820;2023-04-03T03:47:37;2.97;;;2.03;;
70967;SDS011;58629;48.808;8.820;2023-04-03T03:50:03;2.90;;;1.80;;
70967;SDS011;58629;48.808;8.820;2023-04-03T03:52:28;2.70;;;1.80;;
70967;SDS011;58629;48.808;8.820;2023-04-03T03:54:55;2.27;;;1.40;;
70967;SDS011;58629;48.808;8.820;2023-04-03T03:57:20;2.50;;;1.50;;
70967;SDS011;58629;48.808;8.820;2023-04-03T03:59:46;3.10;;;2.10;;
70967;SDS011;58629;48.808;8.820;2023-04-03T04:02:12;2.75;;;1.70;;
70967;SDS011;58629;48.808;8.820;2023-04-03T04:04:37;3.17;;;1.87;;
70967;SDS011;58629;48.808;8.820;2023-04-03T04:07:03;2.63;;;1.80;;
70967;SDS011;58629;48.808;8.820;2023-04-03T04:09:28;2.50;;;1.42;;
70967;SDS011;58629;48.808;8.820;2023-04-03T04:11:54;2.13;;;1.40;;
70967;SDS011;58629;48.808;8.820;2023-04-03T04:14:19;3.17;;;1.70;;
70967;SDS011;58629;48.808;8.820;2023-04-03T04:16:47;3.92;;;1.95;;
70967;SDS011;58629;48.808;8.820;2023-04-03T04:19:13;4.20;;;2.10;;
70967;SDS011;58629;48.808;8.820;2023-04-03T04:21:39;4.05;;;3.35;;
70967;SDS011;58629;48.808;8.820;2023-04-03T04:24:04;2.60;;;1.80;;
70967;SDS011;58629;48.808;8.820;2023-04-03T04:26:30;2.70;;;2.08;;
70967;SDS011;58629;48.808;8.820;2023-04-03T04:28:55;3.53;;;2.40;;
70967;SDS011;58629;48.808;8.820;2023-04-03T04:31:21;3.03;;;2.17;;
70967;SDS011;58629;48.808;8.820;2023-04-03T04:33:46;2.77;;;1.90;;
70967;SDS011;58629;48.808;8.820;2023-04-03T04:36:11;2.90;;;1.83;;
70967;SDS011;58629;48.808;8.820;2023-04-03T04:38:37;5.00;;;1.80;;
70967;SDS011;58629;48.808;8.820;2023-04-03T04:41:03;2.90;;;2.00;;
70967;SDS011;58629;48.808;8.820;2023-04-03T04:43:28;3.43;;;2.10;;
70967;SDS011;58629;48.808;8.820;2023-04-03T04:46:00;2.50;;;1.50;;
70967;SDS011;58629;48.808;8.820;2023-04-03T04:48:27;2.63;;;1.63;;
70967;SDS011;58629;48.808;8.820;2023-04-03T04:50:52;2.33;;;1.87;;
70967;SDS011;58629;48.808;8.820;2023-04-03T04:53:17;2.50;;;1.93;;
70967;SDS011;58629;48.808;8.820;2023-04-03T04:55:42;3.33;;;2.40;;
70967;SDS011;58629;48.808;8.820;2023-04-03T04:58:08;3.90;;;2.50;;
70967;SDS011;58629;48.808;8.820;2023-04-03T05:00:33;4.53;;;2.43;;
70967;SDS011;58629;48.808;8.820;2023-04-03T05:02:58;3.37;;;2.50;;
70967;SDS011;58629;48.808;8.820;2023-04-03T05:05:23;3.40;;;2.10;;
70967;SDS011;58629;48.808;8.820;2023-04-03T05:07:49;3.73;;;2.30;;
70967;SDS011;58629;48.808;8.820;2023-04-03T05:10:14;3.13;;;2.10;;
70967;SDS011;58629;48.808;8.820;2023-04-03T05:12:39;3.92;;;2.20;;
70967;SDS011;58629;48.808;8.820;2023-04-03T05:15:05;3.73;;;2.20;;
70967;SDS011;58629;48.808;8.820;2023-04-03T05:17:31;3.57;;;2.50;;
70967;SDS011;58629;48.808;8.820;2023-04-03T05:19:56;2.72;;;1.90;;
70967;SDS011;58629;48.808;8.820;2023-04-03T05:22:21;2.92;;;1.90;;
70967;SDS011;58629;48.808;8.820;2023-04-03T05:24:47;3.00;;;2.20;;
70967;SDS011;58629;48.808;8.820;2023-04-03T05:27:12;2.90;;;2.23;;
70967;SDS011;58629;48.808;8.820;2023-04-03T05:29:37;3.37;;;1.90;;
70967;SDS011;58629;48.808;8.820;2023-04-03T05:32:03;2.90;;;1.70;;
70967;SDS011;58629;48.808;8.820;2023-04-03T05:34:28;2.87;;;1.70;;
70967;SDS011;58629;48.808;8.820;2023-04-03T05:36:53;2.47;;;1.67;;
70967;SDS011;58629;48.808;8.820;2023-04-03T05:39:19;3.42;;;2.00;;
70967;SDS011;58629;48.808;8.820;2023-04-03T05:41:44;2.77;;;2.00;;
70967;SDS011;58629;48.808;8.820;2023-04-03T05:44:10;3.47;;;1.73;;
70967;SDS011;58629;48.808;8.820;2023-04-03T05:46:35;2.07;;;1.60;;
70967;SDS011;58629;48.808;8.820;2023-04-03T05:49:00;3.77;;;2.10;;
70967;SDS011;58629;48.808;8.820;2023-04-03T05:51:28;3.83;;;2.10;;
70967;SDS011;58629;48.808;8.820;2023-04-03T05:54:03;2.67;;;1.73;;
70967;SDS011;58629;48.808;8.820;2023-04-03T05:56:34;4.75;;;3.08;;
70967;SDS011;58629;48.808;8.820;2023-04-03T05:59:00;3.80;;;2.30;;
70967;SDS011;58629;48.808;8.820;2023-04-03T06:01:25;2.90;;;2.00;;
70967;SDS011;58629;48.808;8.820;2023-04-03T06:03:51;3.53;;;1.90;;
70967;SDS011;58629;48.808;8.820;2023-04-03T06:06:16;2.90;;;1.77;;
70967;SDS011;58629;48.808;8.820;2023-04-03T06:08:41;2.70;;;1.60;;
70967;SDS011;58629;48.808;8.820;2023-04-03T06:11:08;2.70;;;1.60;;
70967;SDS011;58629;48.808;8.820;2023-04-03T06:13:33;3.40;;;1.90;;
70967;SDS011;58629;48.808;8.820;2023-04-03T06:16:00;2.73;;;2.00;;
70967;SDS011;58629;48.808;8.820;2023-04-03T06:18:25;4.10;;;2.58;;
70967;SDS011;58629;48.808;8.820;2023-04-03T06:20:51;2.23;;;1.70;;
70967;SDS011;58629;48.808;8.820;2023-04-03T06:23:16;2.50;;;1.90;;
70967;SDS011;58629;48.808;8.820;2023-04-03T06:25:42;3.60;;;1.90;;
70967;SDS011;58629;48.808;8.820;2023-04-03T06:28:08;3.77;;;1.80;;
70967;SDS011;58629;48.808;8.820;2023-04-03T06:30:35;3.35;;;2.00;;
70967;SDS011;58629;48.808;8.820;2023-04-03T06:33:01;2.63;;;1.70;;
70967;SDS011;58629;48.808;8.820;2023-04-03T06:35:26;3.10;;;1.87;;
70967;SDS011;58629;48.808;8.820;2023-04-03T06:37:53;2.53;;;1.90;;
70967;SDS011;58629;48.808;8.820;2023-04-03T06:40:19;3.43;;;1.80;;
70967;SDS011;58629;48.808;8.820;2023-04-03T06:42:47;2.70;;;1.70;;
70967;SDS011;58629;48.808;8.820;2023-04-03T06:45:13;3.70;;;2.07;;
70967;SDS011;58629;48.808;8.820;2023-04-03T06:47:38;3.95;;;2.00;;
70967;SDS011;58629;48.808;8.820;2023-04-03T06:50:04;4.73;;;1.50;;
70967;SDS011;58629;48.808;8.820;2023-04-03T06:52:31;2.35;;;1.50;;
70967;SDS011;58629;48.808;8.820;2023-04-03T06:54:56;3.53;;;1.83;;
70967;SDS011;58629;48.808;8.820;2023-04-03T06:57:24;2.63;;;1.60;;
70967;SDS011;58629;48.808;8.820;2023-04-03T06:59:49;3.95;;;2.10;;
70967;SDS011;58629;48.808;8.820;2023-04-03T07:02:15;3.43;;;1.60;;
70967;SDS011;58629;48.808;8.820;2023-04-03T07:04:40;3.27;;;1.93;;
70967;SDS011;58629;48.808;8.820;2023-04-03T07:07:05;2.93;;;1.90;;
70967;SDS011;58629;48.808;8.820;2023-04-03T07:09:31;3.83;;;2.00;;
70967;SDS011;58629;48.808;8.820;2023-04-03T07:11:56;3.37;;;1.70;;
70967;SDS011;58629;48.808;8.820;2023-04-03T07:14:21;4.30;;;2.10;;
70967;SDS011;58629;48.808;8.820;2023-04-03T07:16:47;4.20;;;1.90;;
70967;SDS011;58629;48.808;8.820;2023-04-03T07:19:12;3.23;;;2.00;;
70967;SDS011;58629;48.808;8.820;2023-04-03T07:21:37;3.20;;;2.00;;
70967;SDS011;58629;48.808;8.820;2023-04-03T07:24:03;2.90;;;1.95;;
70967;SDS011;58629;48.808;8.820;2023-04-03T07:26:28;3.67;;;2.13;;
70967;SDS011;58629;48.808;8.820;2023-04-03T07:28:53;3.10;;;1.80;;
70967;SDS011;58629;48.808;8.820;2023-04-03T07:31:19;4.17;;;2.20;;
70967;SDS011;58629;48.808;8.820;2023-04-03T07:33:44;3.60;;;2.10;;
70967;SDS011;58629;48.808;8.820;2023-04-03T07:36:11;5.13;;;2.25;;
70967;SDS011;58629;48.808;8.820;2023-04-03T07:38:41;4.10;;;2.13;;
70967;SDS011;58629;48.808;8.820;2023-04-03T07:41:06;4.00;;;2.37;;
70967;SDS011;58629;48.808;8.820;2023-04-03T07:43:32;4.13;;;2.60;;
70967;SDS011;58629;48.808;8.820;2023-04-03T07:45:58;4.22;;;2.53;;
70967;SDS011;58629;48.808;8.820;2023-04-03T07:48:24;4.00;;;2.27;;
70967;SDS011;58629;48.808;8.820;2023-04-03T07:50:50;3.75;;;2.00;;
70967;SDS011;58629;48.808;8.820;2023-04-03T07:53:16;5.00;;;2.83;;
70967;SDS011;58629;48.808;8.820;2023-04-03T07:55:42;4.17;;;2.80;;
70967;SDS011;58629;48.808;8.820;2023-04-03T07:58:10;4.75;;;2.50;;
70967;SDS011;58629;48.808;8.820;2023-04-03T08:00:37;4.00;;;2.50;;
70967;SDS011;58629;48.808;8.820;2023-04-03T08:03:03;4.00;;;2.35;;
70967;SDS011;58629;48.808;8.820;2023-04-03T08:05:28;4.53;;;2.50;;
70967;SDS011;58629;48.808;8.820;2023-04-03T08:07:54;4.93;;;2.65;;
70967;SDS011;58629;48.808;8.820;2023-04-03T08:10:19;5.40;;;2.90;;
70967;SDS011;58629;48.808;8.820;2023-04-03T08:12:45;6.27;;;2.60;;
70967;SDS011;58629;48.808;8.820;2023-04-03T08:15:12;3.30;;;2.38;;
70967;SDS011;58629;48.808;8.820;2023-04-03T08:17:37;4.83;;;2.70;;
70967;SDS011;58629;48.808;8.820;2023-04-03T08:20:03;5.63;;;2.77;;
70967;SDS011;58629;48.808;8.820;2023-04-03T08:22:30;4.55;;;2.40;;
70967;SDS011;58629;48.808;8.820;2023-04-03T08:24:55;4.03;;;2.50;;
70967;SDS011;58629;48.808;8.820;2023-04-03T08:27:21;3.63;;;2.63;;
70967;SDS011;58629;48.808;8.820;2023-04-03T08:29:46;3.80;;;2.50;;
70967;SDS011;58629;48.808;8.820;2023-04-03T08:32:12;4.50;;;2.60;;
70967;SDS011;58629;48.808;8.820;2023-04-03T08:34:37;4.60;;;2.63;;
70967;SDS011;58629;48.808;8.820;2023-04-03T08:37:04;4.60;;;2.80;;
70967;SDS011;58629;48.808;8.820;2023-04-03T08:39:30;4.85;;;2.60;;
70967;SDS011;58629;48.808;8.820;2023-04-03T08:41:57;5.47;;;2.60;;
70967;SDS011;58629;48.808;8.820;2023-04-03T08:49:49;5.35;;;2.60;;
70967;SDS011;58629;48.808;8.820;2023-04-03T08:52:19;3.58;;;2.38;;
70967;SDS011;58629;48.808;8.820;2023-04-03T08:54:51;3.72;;;2.10;;
70967;SDS011;58629;48.808;8.820;2023-04-03T08:57:24;4.53;;;2.50;;
70967;SDS011;58629;48.808;8.820;2023-04-03T08:59:54;4.13;;;2.40;;
70967;SDS011;58629;48.808;8.820;2023-04-03T09:02:30;6.65;;;2.80;;
70967;SDS011;58629;48.808;8.820;2023-04-03T09:04:59;5.80;;;2.55;;
70967;SDS011;58629;48.808;8.820;2023-04-03T09:07:47;4.57;;;2.90;;
70967;SDS011;58629;48.808;8.820;2023-04-03T09:10:15;3.70;;;2.60;;
70967;SDS011;58629;48.808;8.820;2023-04-03T09:12:49;5.30;;;2.50;;
70967;SDS011;58629;48.808;8.820;2023-04-03T09:15:21;3.08;;;2.30;;
70967;SDS011;58629;48.808;8.820;2023-04-03T09:26:08;5.07;;;2.20;;
70967;SDS011;58629;48.808;8.820;2023-04-03T09:28:39;3.92;;;2.25;;
70967;SDS011;58629;48.808;8.820;2023-04-03T09:33:44;4.15;;;2.50;;
70967;SDS011;58629;48.808;8.820;2023-04-03T09:36:11;3.83;;;2.60;;
70967;SDS011;58629;48.808;8.820;2023-04-03T09:38:37;3.83;;;2.40;;
70967;SDS011;58629;48.808;8.820;2023-04-03T09:41:04;3.40;;;2.75;;
70967;SDS011;58629;48.808;8.820;2023-04-03T09:43:32;5.43;;;3.10;;
70967;SDS011;58629;48.808;8.820;2023-04-03T09:48:58;5.10;;;2.60;;
70967;SDS011;58629;48.808;8.820;2023-04-03T09:51:26;4.47;;;3.40;;
70967;SDS011;58629;48.808;8.820;2023-04-03T09:53:52;4.95;;;3.35;;
70967;SDS011;58629;48.808;8.820;2023-04-03T09:56:20;3.93;;;2.73;;
70967;SDS011;58629;48.808;8.820;2023-04-03T10:01:23;3.83;;;2.20;;
70967;SDS011;58629;48.808;8.820;2023-04-03T10:04:02;4.22;;;2.47;;
70967;SDS011;58629;48.808;8.820;2023-04-03T10:09:16;4.67;;;2.83;;
70967;SDS011;58629;48.808;8.820;2023-04-03T10:11:58;3.55;;;2.03;;
70967;SDS011;58629;48.808;8.820;2023-04-03T10:14:25;3.28;;;2.30;;
70967;SDS011;58629;48.808;8.820;2023-04-03T10:25:49;4.43;;;2.53;;
70967;SDS011;58629;48.808;8.820;2023-04-03T10:31:20;5.78;;;4.32;;
70967;SDS011;58629;48.808;8.820;2023-04-03T10:33:55;5.00;;;3.05;;
70967;SDS011;58629;48.808;8.820;2023-04-03T10:36:34;4.07;;;3.07;;
70967;SDS011;58629;48.808;8.820;2023-04-03T10:44:37;3.92;;;2.58;;
70967;SDS011;58629;48.808;8.820;2023-04-03T10:48:07;4.63;;;1.83;;
70967;SDS011;58629;48.808;8.820;2023-04-03T10:58:56;3.03;;;1.63;;
70967;SDS011;58629;48.808;8.820;2023-04-03T11:01:33;2.80;;;1.70;;
70967;SDS011;58629;48.808;8.820;2023-04-03T11:04:03;2.17;;;1.53;;
70967;SDS011;58629;48.808;8.820;2023-04-03T11:06:32;3.17;;;1.45;;
70967;SDS011;58629;48.808;8.820;2023-04-03T11:09:18;3.35;;;2.05;;
70967;SDS011;58629;48.808;8.820;2023-04-03T11:11:49;3.28;;;1.95;;
70967;SDS011;58629;48.808;8.820;2023-04-03T11:14:26;2.55;;;1.80;;
70967;SDS011;58629;48.808;8.820;2023-04-03T11:16:59;3.17;;;2.10;;
70967;SDS011;58629;48.808;8.820;2023-04-03T11:19:38;4.18;;;1.77;;
70967;SDS011;58629;48.808;8.820;2023-04-03T11:27:41;2.67;;;1.65;;
70967;SDS011;58629;48.808;8.820;2023-04-03T11:30:21;3.10;;;1.43;;
70967;SDS011;58629;48.808;8.820;2023-04-03T11:35:34;3.67;;;1.90;;
70967;SDS011;58629;48.808;8.820;2023-04-03T11:38:00;2.78;;;1.90;;
70967;SDS011;58629;48.808;8.820;2023-04-03T11:40:31;2.95;;;1.60;;
70967;SDS011;58629;48.808;8.820;2023-04-03T11:47:51;3.00;;;1.70;;
70967;SDS011;58629;48.808;8.820;2023-04-03T12:16:25;2.53;;;1.70;;
70967;SDS011;58629;48.808;8.820;2023-04-03T12:24:04;3.33;;;1.92;;
70967;SDS011;58629;48.808;8.820;2023-04-03T12:46:26;3.70;;;3.30;;
70967;SDS011;58629;48.808;8.820;2023-04-03T12:49:00;2.78;;;1.80;;
70967;SDS011;58629;48.808;8.820;2023-04-03T12:54:13;2.00;;;1.30;;
70967;SDS011;58629;48.808;8.820;2023-04-03T12:56:41;3.92;;;2.20;;
70967;SDS011;58629;48.808;8.820;2023-04-03T12:59:13;2.97;;;2.00;;
70967;SDS011;58629;48.808;8.820;2023-04-03T13:01:42;2.50;;;1.53;;
70967;SDS011;58629;48.808;8.820;2023-04-03T13:04:09;2.85;;;1.50;;
70967;SDS011;58629;48.808;8.820;2023-04-03T13:06:40;3.83;;;2.40;;
70967;SDS011;58629;48.808;8.820;2023-04-03T13:11:51;2.50;;;1.40;;
70967;SDS011;58629;48.808;8.820;2023-04-03T13:14:22;2.53;;;1.70;;
70967;SDS011;58629;48.808;8.820;2023-04-03T13:16:56;1.85;;;1.33;;
70967;SDS011;58629;48.808;8.820;2023-04-03T13:19:27;3.20;;;1.48;;
70967;SDS011;58629;48.808;8.820;2023-04-03T13:21:57;2.95;;;1.40;;
70967;SDS011;58629;48.808;8.820;2023-04-03T13:24:27;1.70;;;1.33;;
70967;SDS011;58629;48.808;8.820;2023-04-03T13:26:55;2.13;;;1.13;;
70967;SDS011;58629;48.808;8.820;2023-04-03T13:29:26;2.63;;;1.40;;
70967;SDS011;58629;48.808;8.820;2023-04-03T13:31:55;4.70;;;1.60;;
70967;SDS011;58629;48.808;8.820;2023-04-03T13:34:22;2.72;;;1.40;;
70967;SDS011;58629;48.808;8.820;2023-04-03T13:41:44;2.20;;;1.40;;
70967;SDS011;58629;48.808;8.820;2023-04-03T13:46:50;1.88;;;1.23;;
70967;SDS011;58629;48.808;8.820;2023-04-03T13:49:18;4.35;;;2.78;;
70967;SDS011;58629;48.808;8.820;2023-04-03T13:51:43;4.00;;;2.57;;
70967;SDS011;58629;48.808;8.820;2023-04-03T13:54:22;2.95;;;2.10;;
70967;SDS011;58629;48.808;8.820;2023-04-03T13:56:53;2.83;;;1.40;;
70967;SDS011;58629;48.808;8.820;2023-04-03T13:59:24;3.22;;;1.55;;
70967;SDS011;58629;48.808;8.820;2023-04-03T14:04:29;2.50;;;1.20;;
70967;SDS011;58629;48.808;8.820;2023-04-03T14:06:57;2.70;;;1.55;;
70967;SDS011;58629;48.808;8.820;2023-04-03T14:09:24;2.47;;;1.20;;
70967;SDS011;58629;48.808;8.820;2023-04-03T14:11:59;2.10;;;0.90;;
70967;SDS011;58629;48.808;8.820;2023-04-03T14:14:30;2.47;;;1.02;;
70967;SDS011;58629;48.808;8.820;2023-04-03T14:16:59;1.92;;;1.20;;
70967;SDS011;58629;48.808;8.820;2023-04-03T14:19:28;2.92;;;1.00;;
70967;SDS011;58629;48.808;8.820;2023-04-03T14:21:55;3.27;;;1.80;;
70967;SDS011;58629;48.808;8.820;2023-04-03T14:24:22;2.40;;;1.30;;
70967;SDS011;58629;48.808;8.820;2023-04-03T14:26:49;3.50;;;1.92;;
70967;SDS011;58629;48.808;8.820;2023-04-03T14:29:16;2.88;;;1.50;;
70967;SDS011;58629;48.808;8.820;2023-04-03T14:31:43;3.00;;;1.40;;
70967;SDS011;58629;48.808;8.820;2023-04-03T14:34:12;3.05;;;1.38;;
70967;SDS011;58629;48.808;8.820;2023-04-03T14:36:39;4.38;;;2.03;;
70967;SDS011;58629;48.808;8.820;2023-04-03T14:39:05;2.92;;;2.00;;
70967;SDS011;58629;48.808;8.820;2023-04-03T14:41:32;2.20;;;1.30;;
70967;SDS011;58629;48.808;8.820;2023-04-03T14:43:57;2.10;;;1.40;;
70967;SDS011;58629;48.808;8.820;2023-04-03T14:48:54;2.63;;;1.40;;
70967;SDS011;58629;48.808;8.820;2023-04-03T14:51:19;2.80;;;1.55;;
70967;SDS011;58629;48.808;8.820;2023-04-03T14:53:46;3.90;;;1.50;;
70967;SDS011;58629;48.808;8.820;2023-04-03T14:58:39;2.40;;;1.42;;
70967;SDS011;58629;48.808;8.820;2023-04-03T15:01:04;2.33;;;1.30;;
70967;SDS011;58629;48.808;8.820;2023-04-03T15:03:29;3.55;;;1.80;;
70967;SDS011;58629;48.808;8.820;2023-04-03T15:05:55;7.63;;;3.50;;
70967;SDS011;58629;48.808;8.820;2023-04-03T15:08:21;4.13;;;2.80;;
70967;SDS011;58629;48.808;8.820;2023-04-03T15:10:49;5.57;;;2.50;;
70967;SDS011;58629;48.808;8.820;2023-04-03T15:13:17;4.72;;;2.70;;
70967;SDS011;58629;48.808;8.820;2023-04-03T15:15:44;5.67;;;2.90;;
70967;SDS011;58629;48.808;8.820;2023-04-03T15:18:14;4.53;;;2.70;;
70967;SDS011;58629;48.808;8.820;2023-04-03T15:20:41;6.63;;;3.05;;
70967;SDS011;58629;48.808;8.820;2023-04-03T15:23:08;4.80;;;2.40;;
70967;SDS011;58629;48.808;8.820;2023-04-03T15:25:34;2.93;;;1.70;;
70967;SDS011;58629;48.808;8.820;2023-04-03T15:27:59;3.67;;;2.10;;
70967;SDS011;58629;48.808;8.820;2023-04-03T15:30:25;3.47;;;2.20;;
70967;SDS011;58629;48.808;8.820;2023-04-03T15:32:51;3.97;;;2.07;;
70967;SDS011;58629;48.808;8.820;2023-04-03T15:35:16;3.33;;;1.73;;
70967;SDS011;58629;48.808;8.820;2023-04-03T15:37:41;4.35;;;1.88;;
70967;SDS011;58629;48.808;8.820;2023-04-03T15:40:07;5.67;;;2.70;;
70967;SDS011;58629;48.808;8.820;2023-04-03T15:42:32;4.60;;;1.50;;
70967;SDS011;58629;48.808;8.820;2023-04-03T15:44:58;2.30;;;1.30;;
70967;SDS011;58629;48.808;8.820;2023-04-03T15:47:24;2.40;;;1.20;;
70967;SDS011;58629;48.808;8.820;2023-04-03T15:49:50;4.63;;;2.20;;
70967;SDS011;58629;48.808;8.820;2023-04-03T15:52:15;3.97;;;2.00;;
70967;SDS011;58629;48.808;8.820;2023-04-03T15:54:41;2.80;;;1.90;;
70967;SDS011;58629;48.808;8.820;2023-04-03T15:57:06;3.10;;;1.60;;
70967;SDS011;58629;48.808;8.820;2023-04-03T15:59:31;2.77;;;1.63;;
70967;SDS011;58629;48.808;8.820;2023-04-03T16:01:57;2.00;;;1.30;;
70967;SDS011;58629;48.808;8.820;2023-04-03T16:04:23;2.15;;;1.33;;
70967;SDS011;58629;48.808;8.820;2023-04-03T16:06:48;2.20;;;1.47;;
70967;SDS011;58629;48.808;8.820;2023-04-03T16:09:14;3.27;;;1.60;;
70967;SDS011;58629;48.808;8.820;2023-04-03T16:11:39;3.22;;;2.00;;
70967;SDS011;58629;48.808;8.820;2023-04-03T16:14:05;3.08;;;2.05;;
70967;SDS011;58629;48.808;8.820;2023-04-03T16:16:32;3.13;;;2.00;;
70967;SDS011;58629;48.808;8.820;2023-04-03T16:18:57;6.35;;;2.80;;
70967;SDS011;58629;48.808;8.820;2023-04-03T16:21:23;4.70;;;2.67;;
70967;SDS011;58629;48.808;8.820;2023-04-03T16:23:48;3.47;;;2.20;;
70967;SDS011;58629;48.808;8.820;2023-04-03T16:26:14;3.67;;;2.50;;
70967;SDS011;58629;48.808;8.820;2023-04-03T16:28:40;4.03;;;2.10;;
70967;SDS011;58629;48.808;8.820;2023-04-03T16:31:05;3.50;;;1.93;;
70967;SDS011;58629;48.808;8.820;2023-04-03T16:33:32;2.90;;;1.90;;
70967;SDS011;58629;48.808;8.820;2023-04-03T16:35:57;3.50;;;2.50;;
70967;SDS011;58629;48.808;8.820;2023-04-03T16:38:23;2.70;;;1.90;;
70967;SDS011;58629;48.808;8.820;2023-04-03T16:40:48;2.53;;;2.07;;
70967;SDS011;58629;48.808;8.820;2023-04-03T16:43:14;2.40;;;1.50;;
70967;SDS011;58629;48.808;8.820;2023-04-03T16:45:40;1.95;;;1.50;;
70967;SDS011;58629;48.808;8.820;2023-04-03T16:48:05;2.10;;;1.47;;
70967;SDS011;58629;48.808;8.820;2023-04-03T16:50:31;3.40;;;1.50;;
70967;SDS011;58629;48.808;8.820;2023-04-03T16:52:56;3.07;;;1.40;;
70967;SDS011;58629;48.808;8.820;2023-04-03T16:55:21;4.30;;;1.30;;
70967;SDS011;58629;48.808;8.820;2023-04-03T16:57:47;2.10;;;1.40;;
70967;SDS011;58629;48.808;8.820;2023-04-03T17:00:12;2.60;;;1.40;;
70967;SDS011;58629;48.808;8.820;2023-04-03T17:02:38;3.30;;;2.03;;
70967;SDS011;58629;48.808;8.820;2023-04-03T17:05:04;2.63;;;1.80;;